Time;durP1;ratioP1;P1;durP2;ratioP2;P2;SDS_P1;SDS_P2;PMS_P1;PMS_P2;Temp;Humidity;BMP_temperature;BMP_pressure;BME280_temperature;BME280_humidity;BME280_pressure;Samples;Min_cycle;Max_cycle;Signal;HPM_P1;HPM_P2
2023/09/21 00:04:52;;;;;;;;;;;21.60;61.00;;;;;;10389276;28;35397;-43
2023/09/21 00:09:53;;;;;;;;;;;21.60;61.00;;;;;;10392186;28;20239;-44
2023/09/21 00:14:55;;;;;;;;;;;21.60;61.00;;;;;;10376151;28;19942;-44
2023/09/21 00:19:57;;;;;;;;;;;21.70;61.20;;;;;;10391901;28;19933;-45
2023/09/21 00:24:58;;;;;;;;;;;21.70;61.10;;;;;;10396280;28;20405;-47
2023/09/21 00:30:05;;;;;;;;;;;21.70;61.10;;;;;;10403742;28;19937;-44
2023/09/21 00:35:09;;;;;;;;;;;21.70;61.20;;;;;;10393745;28;20016;-45
2023/09/21 00:40:17;;;;;;;;;;;21.60;61.00;;;;;;10383869;28;20300;-48
2023/09/21 00:45:22;;;;;;;;;;;21.70;60.80;;;;;;10390929;28;20496;-43
2023/09/21 00:50:24;;;;;;;;;;;21.70;60.70;;;;;;10375098;28;19941;-41
2023/09/21 00:55:39;;;;;;;;;;;21.70;60.70;;;;;;10371092;28;19941;-42
2023/09/21 01:00:41;;;;;;;;;;;21.70;60.40;;;;;;10366555;28;20412;-43
2023/09/21 01:05:44;;;;;;;;;;;21.70;60.40;;;;;;10394883;28;19934;-43
2023/09/21 01:10:49;;;;;;;;;;;21.70;60.10;;;;;;10389969;28;19972;-43
2023/09/21 01:15:58;;;;;;;;;;;21.70;60.30;;;;;;10396314;28;19933;-45
2023/09/21 01:21:04;;;;;;;;;;;21.70;60.00;;;;;;10378225;28;20530;-42
2023/09/21 01:26:06;;;;;;;;;;;21.70;60.00;;;;;;10389006;28;19934;-42
2023/09/21 01:31:09;;;;;;;;;;;21.70;59.80;;;;;;10380378;28;19933;-42
2023/09/21 01:36:12;;;;;;;;;;;21.70;59.90;;;;;;10389201;28;20091;-44
2023/09/21 01:41:16;;;;;;;;;;;21.70;59.60;;;;;;10374032;28;20487;-43
2023/09/21 01:46:21;;;;;;;;;;;21.70;59.50;;;;;;10383439;28;20432;-43
2023/09/21 01:51:23;;;;;;;;;;;21.70;59.60;;;;;;10387200;28;19933;-42
2023/09/21 01:56:28;;;;;;;;;;;21.70;59.60;;;;;;10382570;28;19940;-43
2023/09/21 02:01:29;;;;;;;;;;;21.70;59.60;;;;;;10387177;28;19934;-46
2023/09/21 02:06:31;;;;;;;;;;;21.70;59.70;;;;;;10383740;28;20020;-43
2023/09/21 02:11:33;;;;;;;;;;;21.70;59.50;;;;;;10382952;28;19984;-43
2023/09/21 02:16:35;;;;;;;;;;;21.70;59.40;;;;;;10389023;28;19933;-42
2023/09/21 02:21:36;;;;;;;;;;;21.70;59.30;;;;;;10381461;28;19933;-45
2023/09/21 02:26:40;;;;;;;;;;;21.70;59.50;;;;;;10380028;28;19934;-44
2023/09/21 02:31:45;;;;;;;;;;;21.70;59.10;;;;;;10382010;28;20308;-46
2023/09/21 02:36:47;;;;;;;;;;;21.70;59.10;;;;;;10392512;28;19933;-44
2023/09/21 02:41:50;;;;;;;;;;;21.70;59.30;;;;;;10391467;28;19934;-42
2023/09/21 02:46:52;;;;;;;;;;;21.70;59.10;;;;;;10392282;28;20495;-48
2023/09/21 02:51:54;;;;;;;;;;;21.60;59.00;;;;;;10393403;28;19933;-47
2023/09/21 02:56:55;;;;;;;;;;;21.60;59.00;;;;;;10402475;28;20071;-45
2023/09/21 03:01:57;;;;;;;;;;;21.70;59.00;;;;;;10394166;28;20028;-43
2023/09/21 03:06:59;;;;;;;;;;;21.60;58.80;;;;;;10392225;28;19933;-51
2023/09/21 03:12:01;;;;;;;;;;;21.60;58.80;;;;;;10393118;28;20077;-46
2023/09/21 03:17:05;;;;;;;;;;;21.60;58.70;;;;;;10403587;28;19933;-44
2023/09/21 03:22:06;;;;;;;;;;;21.60;58.80;;;;;;10393977;28;19934;-42
2023/09/21 03:27:10;;;;;;;;;;;21.60;58.70;;;;;;10392538;28;20198;-43
2023/09/21 03:32:12;;;;;;;;;;;21.60;58.70;;;;;;10381897;28;20611;-44
2023/09/21 03:37:14;;;;;;;;;;;21.60;58.80;;;;;;10393750;28;20420;-42
2023/09/21 03:42:17;;;;;;;;;;;21.60;58.80;;;;;;10390094;28;19939;-45
2023/09/21 03:47:20;;;;;;;;;;;21.60;58.80;;;;;;10377007;28;19940;-42
2023/09/21 03:52:22;;;;;;;;;;;21.60;58.70;;;;;;10382791;28;19965;-46
2023/09/21 03:57:24;;;;;;;;;;;21.60;58.80;;;;;;10387821;28;19933;-44
2023/09/21 04:02:25;;;;;;;;;;;21.60;58.90;;;;;;10383745;28;20308;-43
2023/09/21 04:07:27;;;;;;;;;;;21.60;58.60;;;;;;10390881;28;20479;-42
2023/09/21 04:12:30;;;;;;;;;;;21.60;58.70;;;;;;10382227;28;19934;-46
2023/09/21 04:17:32;;;;;;;;;;;21.60;58.60;;;;;;10386754;28;19934;-47
2023/09/21 04:22:34;;;;;;;;;;;21.60;58.30;;;;;;10387785;28;19933;-45
2023/09/21 04:27:39;;;;;;;;;;;21.60;58.30;;;;;;10387580;28;20371;-43
2023/09/21 04:32:41;;;;;;;;;;;21.70;58.50;;;;;;10373830;28;19933;-44
2023/09/21 04:37:47;;;;;;;;;;;21.70;58.50;;;;;;10387971;28;19939;-44
2023/09/21 04:42:52;;;;;;;;;;;21.70;58.30;;;;;;10380729;28;20308;-48
2023/09/21 04:48:03;;;;;;;;;;;21.70;58.30;;;;;;10877523;22;20670;-43
2023/09/21 04:53:06;;;;;;;;;;;21.70;58.20;;;;;;10324820;28;19938;-48
2023/09/21 04:58:07;;;;;;;;;;;21.70;58.20;;;;;;10321351;28;19934;-44
2023/09/21 05:03:10;;;;;;;;;;;21.70;58.10;;;;;;10320911;28;19941;-44
2023/09/21 05:08:12;;;;;;;;;;;21.70;58.10;;;;;;10339997;28;20072;-44
2023/09/21 05:13:14;;;;;;;;;;;21.70;58.60;;;;;;10332737;28;20278;-46
2023/09/21 05:18:16;;;;;;;;;;;21.70;59.00;;;;;;10333864;28;20285;-43
2023/09/21 05:23:19;;;;;;;;;;;21.70;59.20;;;;;;10327178;28;19934;-46
2023/09/21 05:28:21;;;;;;;;;;;21.70;59.50;;;;;;10343104;28;20222;-42
2023/09/21 05:33:23;;;;;;;;;;;21.70;59.90;;;;;;10341262;28;20282;-41
2023/09/21 05:38:25;;;;;;;;;;;21.60;60.00;;;;;;10347545;28;20277;-41
2023/09/21 05:43:29;;;;;;;;;;;21.60;60.40;;;;;;10362103;28;20411;-43
2023/09/21 05:48:31;;;;;;;;;;;21.60;60.60;;;;;;10343697;28;19934;-44
2023/09/21 05:53:33;;;;;;;;;;;21.60;62.00;;;;;;10344219;28;20297;-45
2023/09/21 05:58:36;;;;;;;;;;;21.60;61.60;;;;;;10340699;28;20697;-48
2023/09/21 06:03:37;;;;;;;;;;;21.70;61.30;;;;;;10340438;28;19934;-44
2023/09/21 06:08:39;;;;;;;;;;;21.70;63.70;;;;;;10352523;28;20440;-44
2023/09/21 06:13:41;;;;;;;;;;;21.70;63.50;;;;;;10369231;28;19973;-45
2023/09/21 06:18:43;;;;;;;;;;;21.70;62.90;;;;;;10355732;28;19933;-47
2023/09/21 06:23:45;;;;;;;;;;;21.70;63.40;;;;;;10355710;28;19944;-46
2023/09/21 06:28:48;;;;;;;;;;;21.80;63.30;;;;;;10348683;28;19934;-44
2023/09/21 06:33:49;;;;;;;;;;;21.80;63.20;;;;;;10364944;28;20155;-45
2023/09/21 06:38:51;;;;;;;;;;;21.80;63.00;;;;;;10370306;28;19934;-45
2023/09/21 06:43:53;;;;;;;;;;;21.80;63.10;;;;;;10353336;28;20451;-48
2023/09/21 06:48:55;;;;;;;;;;;21.80;62.60;;;;;;10354703;28;19964;-46
2023/09/21 06:54:01;;;;;;;;;;;21.80;62.00;;;;;;10354654;28;20024;-44
2023/09/21 06:59:06;;;;;;;;;;;21.80;61.80;;;;;;10375585;28;19934;-47
2023/09/21 07:04:08;;;;;;;;;;;21.70;62.70;;;;;;10353024;28;20404;-45
2023/09/21 07:09:09;;;;;;;;;;;21.70;61.50;;;;;;10355737;28;20548;-46
2023/09/21 07:14:11;;;;;;;;;;;21.70;61.30;;;;;;10353620;28;19934;-43
2023/09/21 07:19:14;;;;;;;;;;;21.70;61.20;;;;;;10352712;28;19996;-43
2023/09/21 07:24:18;;;;;;;;;;;21.70;61.10;;;;;;10365576;28;19933;-44
2023/09/21 07:29:20;;;;;;;;;;;21.70;60.90;;;;;;10353288;28;20029;-45
2023/09/21 07:34:23;;;;;;;;;;;21.70;60.90;;;;;;10349971;28;19933;-48
2023/09/21 07:39:24;;;;;;;;;;;21.70;60.80;;;;;;10371400;28;20003;-45
2023/09/21 07:44:26;;;;;;;;;;;21.70;60.70;;;;;;10357457;28;19941;-44
2023/09/21 07:49:28;;;;;;;;;;;21.70;60.60;;;;;;10354499;28;19940;-46
2023/09/21 07:54:31;;;;;;;;;;;21.70;60.50;;;;;;10364816;28;19941;-47
2023/09/21 07:59:33;;;;;;;;;;;21.70;60.50;;;;;;10352479;28;20294;-44
2023/09/21 08:04:35;;;;;;;;;;;21.70;60.30;;;;;;10351977;28;19940;-45
2023/09/21 08:09:37;;;;;;;;;;;21.70;60.20;;;;;;10351808;28;20214;-47
2023/09/21 08:14:39;;;;;;;;;;;21.70;60.10;;;;;;10358368;28;19934;-48
2023/09/21 08:19:40;;;;;;;;;;;21.70;60.20;;;;;;10367413;28;20428;-45
2023/09/21 08:24:42;;;;;;;;;;;21.70;60.00;;;;;;10348694;28;20397;-44
2023/09/21 08:29:44;;;;;;;;;;;21.70;59.90;;;;;;10349865;28;19933;-46
2023/09/21 08:34:46;;;;;;;;;;;21.70;59.80;;;;;;10351129;28;19934;-44
2023/09/21 08:39:48;;;;;;;;;;;21.70;60.70;;;;;;10363484;28;20309;-45
2023/09/21 08:44:50;;;;;;;;;;;21.70;59.70;;;;;;10373636;28;19933;-44
2023/09/21 08:49:52;;;;;;;;;;;21.70;59.60;;;;;;10353880;28;20205;-49
2023/09/21 08:54:54;;;;;;;;;;;21.70;59.50;;;;;;10352086;28;20418;-46
2023/09/21 08:59:58;;;;;;;;;;;21.70;59.50;;;;;;10351705;28;20341;-69
2023/09/21 09:05:01;;;;;;;;;;;21.70;59.90;;;;;;10337488;28;19934;-45
2023/09/21 09:10:04;;;;;;;;;;;21.70;60.30;;;;;;10338335;28;20028;-52
2023/09/21 09:15:08;;;;;;;;;;;21.70;60.50;;;;;;10355815;28;20090;-49
2023/09/21 09:20:12;;;;;;;;;;;21.60;60.80;;;;;;10348293;28;19944;-43
2023/09/21 09:25:13;;;;;;;;;;;21.60;61.10;;;;;;10353169;28;19934;-48
2023/09/21 09:30:16;;;;;;;;;;;21.60;61.40;;;;;;10352550;28;19957;-43
2023/09/21 09:35:20;;;;;;;;;;;21.60;61.50;;;;;;10346816;28;19985;-45
2023/09/21 09:40:23;;;;;;;;;;;21.60;61.80;;;;;;10352621;28;19941;-47
2023/09/21 09:45:26;;;;;;;;;;;21.60;62.00;;;;;;10356038;28;20634;-44
2023/09/21 09:50:33;;;;;;;;;;;21.60;62.00;;;;;;10357772;28;19933;-44
2023/09/21 09:55:35;;;;;;;;;;;21.50;62.30;;;;;;10357808;28;20220;-46
2023/09/21 10:00:41;;;;;;;;;;;21.50;62.40;;;;;;10356822;28;20047;-42
2023/09/21 10:05:43;;;;;;;;;;;21.50;62.60;;;;;;10356405;28;19977;-47
2023/09/21 10:10:54;;;;;;;;;;;21.50;62.70;;;;;;10355251;28;20432;-45
2023/09/21 10:16:01;;;;;;;;;;;21.50;62.90;;;;;;10355804;28;19933;-46
2023/09/21 10:21:09;;;;;;;;;;;21.50;63.10;;;;;;10354985;28;20309;-47
2023/09/21 10:26:11;;;;;;;;;;;21.40;63.00;;;;;;10354265;28;19934;-43
2023/09/21 10:31:22;;;;;;;;;;;21.40;63.30;;;;;;10355465;28;19934;-45
2023/09/21 10:36:24;;;;;;;;;;;21.40;63.50;;;;;;10367664;28;19934;-43
2023/09/21 10:41:30;;;;;;;;;;;21.40;63.60;;;;;;10367802;28;19938;-42
2023/09/21 10:46:35;;;;;;;;;;;21.40;63.70;;;;;;10344698;28;19934;-44
2023/09/21 10:51:40;;;;;;;;;;;21.40;63.80;;;;;;10345529;28;19942;-44
2023/09/21 10:56:42;;;;;;;;;;;21.40;63.90;;;;;;10353936;28;19970;-48
2023/09/21 11:01:45;;;;;;;;;;;21.40;63.90;;;;;;10353784;28;19940;-48
2023/09/21 11:06:48;;;;;;;;;;;21.40;64.00;;;;;;10354614;28;20312;-47
2023/09/21 11:11:50;;;;;;;;;;;21.40;64.30;;;;;;10343020;28;19934;-46
2023/09/21 11:16:53;;;;;;;;;;;21.40;64.30;;;;;;10367111;28;19934;-43
2023/09/21 11:21:55;;;;;;;;;;;21.40;64.30;;;;;;10351976;28;19934;-47
2023/09/21 11:26:58;;;;;;;;;;;21.40;64.40;;;;;;10353795;28;19934;-46
2023/09/21 11:32:00;;;;;;;;;;;21.40;64.40;;;;;;10356181;28;20020;-45
2023/09/21 11:37:05;;;;;;;;;;;21.40;64.50;;;;;;10352524;28;20835;-53
2023/09/21 11:42:10;;;;;;;;;;;21.40;64.50;;;;;;10351860;28;19933;-47
2023/09/21 11:47:12;;;;;;;;;;;21.40;64.60;;;;;;10374749;28;20171;-47
2023/09/21 11:52:14;;;;;;;;;;;21.40;64.50;;;;;;10350807;28;19934;-42
2023/09/21 11:57:18;;;;;;;;;;;21.40;64.60;;;;;;10352048;28;20037;-45
2023/09/21 12:02:21;;;;;;;;;;;21.40;64.60;;;;;;10350769;28;19940;-44
2023/09/21 12:07:24;;;;;;;;;;;21.40;64.60;;;;;;10356878;28;20041;-44
2023/09/21 12:12:26;;;;;;;;;;;21.40;64.70;;;;;;10360080;28;19934;-44
2023/09/21 12:17:30;;;;;;;;;;;21.40;64.70;;;;;;10350766;28;20076;-43
2023/09/21 12:22:36;;;;;;;;;;;21.40;64.70;;;;;;10350301;28;19941;-46
2023/09/21 12:27:38;;;;;;;;;;;21.40;64.80;;;;;;10362741;28;19940;-43
2023/09/21 12:32:41;;;;;;;;;;;21.40;64.80;;;;;;10351051;28;20734;-43
2023/09/21 12:37:44;;;;;;;;;;;21.40;64.80;;;;;;10349585;28;19934;-46
2023/09/21 12:42:46;;;;;;;;;;;21.40;64.90;;;;;;10351199;28;19974;-45
2023/09/21 12:47:49;;;;;;;;;;;21.30;64.90;;;;;;10365111;28;19941;-45
2023/09/21 12:52:54;;;;;;;;;;;21.40;65.00;;;;;;10348616;28;20024;-49
2023/09/21 12:57:58;;;;;;;;;;;21.30;65.10;;;;;;10349033;28;19980;-46
2023/09/21 13:02:59;;;;;;;;;;;21.30;65.10;;;;;;10364958;28;19934;-45
2023/09/21 13:08:01;;;;;;;;;;;21.30;65.10;;;;;;10375833;28;19941;-45
2023/09/21 13:13:04;;;;;;;;;;;21.30;65.30;;;;;;10350520;28;20439;-43
2023/09/21 13:18:05;;;;;;;;;;;21.30;65.20;;;;;;10339297;28;20403;-44
2023/09/21 13:23:07;;;;;;;;;;;21.30;65.20;;;;;;10348877;28;20124;-45
2023/09/21 13:28:09;;;;;;;;;;;21.30;65.20;;;;;;10347473;28;20312;-46
2023/09/21 13:33:11;;;;;;;;;;;21.30;65.30;;;;;;10350295;28;20085;-44
2023/09/21 13:38:12;;;;;;;;;;;21.30;65.30;;;;;;10350256;28;20151;-44
2023/09/21 13:43:14;;;;;;;;;;;21.30;65.30;;;;;;10348841;28;19934;-45
2023/09/21 13:48:16;;;;;;;;;;;21.30;65.40;;;;;;10347061;28;20133;-44
2023/09/21 13:53:18;;;;;;;;;;;21.30;65.40;;;;;;10348083;28;20412;-45
2023/09/21 13:58:21;;;;;;;;;;;21.30;65.40;;;;;;10348669;28;19934;-45
2023/09/21 14:03:24;;;;;;;;;;;21.30;65.60;;;;;;10346740;28;19934;-46
2023/09/21 14:08:26;;;;;;;;;;;21.30;65.50;;;;;;10348882;28;20312;-46
2023/09/21 14:13:27;;;;;;;;;;;21.30;65.50;;;;;;10349201;28;19965;-48
2023/09/21 14:18:30;;;;;;;;;;;21.30;65.60;;;;;;10346946;28;20301;-51
2023/09/21 14:23:31;;;;;;;;;;;21.30;65.70;;;;;;10349203;28;19960;-48
2023/09/21 14:28:35;;;;;;;;;;;21.30;65.70;;;;;;10340874;28;19941;-45
2023/09/21 14:33:37;;;;;;;;;;;21.30;65.90;;;;;;10367908;28;20311;-42
2023/09/21 14:38:39;;;;;;;;;;;21.30;65.90;;;;;;10371269;28;19933;-43
2023/09/21 14:43:41;;;;;;;;;;;21.30;65.90;;;;;;10356843;28;19937;-42
2023/09/21 14:48:43;;;;;;;;;;;21.30;66.00;;;;;;10368372;28;20934;-43
2023/09/21 14:53:45;;;;;;;;;;;21.30;65.90;;;;;;10352933;28;19934;-46
2023/09/21 14:58:47;;;;;;;;;;;21.30;66.00;;;;;;10353728;28;19941;-46
2023/09/21 15:03:49;;;;;;;;;;;21.30;66.10;;;;;;10367865;28;19941;-43
2023/09/21 15:08:52;;;;;;;;;;;21.40;66.10;;;;;;10349887;28;19934;-46
2023/09/21 15:13:54;;;;;;;;;;;21.40;66.20;;;;;;10370065;28;19969;-45
2023/09/21 15:18:55;;;;;;;;;;;21.40;66.20;;;;;;10353041;28;19941;-46
2023/09/21 15:23:57;;;;;;;;;;;21.40;66.10;;;;;;10355710;28;19934;-47
2023/09/21 15:29:01;;;;;;;;;;;21.40;66.10;;;;;;10365823;28;19960;-45
2023/09/21 15:34:03;;;;;;;;;;;21.40;66.10;;;;;;10351195;28;19934;-48
2023/09/21 15:39:07;;;;;;;;;;;21.40;66.20;;;;;;10354910;28;19940;-46
2023/09/21 15:44:09;;;;;;;;;;;21.40;66.30;;;;;;10349212;28;19941;-47
2023/09/21 15:49:10;;;;;;;;;;;21.40;66.20;;;;;;10349080;28;19945;-45
2023/09/21 15:54:12;;;;;;;;;;;21.40;66.00;;;;;;10338006;28;20001;-44
2023/09/21 15:59:14;;;;;;;;;;;21.40;65.70;;;;;;10356726;28;20520;-44
2023/09/21 16:04:17;;;;;;;;;;;21.50;65.20;;;;;;10342884;28;19934;-45
2023/09/21 16:09:19;;;;;;;;;;;21.50;65.10;;;;;;10349829;28;19940;-43
2023/09/21 16:14:23;;;;;;;;;;;21.50;64.70;;;;;;10352270;28;19938;-47
2023/09/21 16:19:24;;;;;;;;;;;21.50;64.30;;;;;;10353505;28;19963;-44
2023/09/21 16:24:26;;;;;;;;;;;21.50;64.00;;;;;;10362984;28;19941;-47
2023/09/21 16:29:28;;;;;;;;;;;21.50;63.70;;;;;;10350620;28;20026;-49
2023/09/21 16:34:30;;;;;;;;;;;21.50;63.40;;;;;;10343628;28;19934;-43
2023/09/21 16:39:32;;;;;;;;;;;21.50;64.00;;;;;;10349008;28;20367;-46
2023/09/21 16:44:35;;;;;;;;;;;21.40;64.00;;;;;;10344957;28;19985;-47
2023/09/21 16:49:36;;;;;;;;;;;21.50;64.00;;;;;;10348235;28;19934;-48
2023/09/21 16:54:38;;;;;;;;;;;21.50;63.90;;;;;;10356019;28;19934;-47
2023/09/21 16:59:40;;;;;;;;;;;21.50;63.70;;;;;;10339801;28;20238;-50
2023/09/21 17:04:42;;;;;;;;;;;21.50;63.60;;;;;;10353914;28;20449;-45
2023/09/21 17:09:44;;;;;;;;;;;21.50;63.60;;;;;;10345961;28;20034;-47
2023/09/21 17:14:46;;;;;;;;;;;21.50;63.50;;;;;;10340729;28;19934;-45
2023/09/21 17:19:52;;;;;;;;;;;21.50;63.50;;;;;;10358716;28;19933;-45
2023/09/21 17:24:54;;;;;;;;;;;21.50;63.30;;;;;;10333147;28;19941;-43
2023/09/21 17:29:57;;;;;;;;;;;21.50;63.30;;;;;;10348381;28;19955;-43
2023/09/21 17:35:02;;;;;;;;;;;21.50;63.30;;;;;;10348096;28;19934;-43
2023/09/21 17:40:04;;;;;;;;;;;21.50;63.20;;;;;;10348788;28;19997;-45
2023/09/21 17:45:06;;;;;;;;;;;21.50;63.20;;;;;;10343255;28;19936;-47
2023/09/21 17:50:08;;;;;;;;;;;21.50;63.10;;;;;;10348771;28;20277;-44
2023/09/21 17:55:10;;;;;;;;;;;21.50;63.30;;;;;;10348525;28;20416;-47
2023/09/21 18:00:12;;;;;;;;;;;21.50;63.40;;;;;;10336923;28;19940;-46
2023/09/21 18:05:15;;;;;;;;;;;21.50;63.30;;;;;;10353677;28;20004;-44
2023/09/21 18:10:18;;;;;;;;;;;21.50;63.10;;;;;;10355326;28;19941;-57
2023/09/21 18:15:21;;;;;;;;;;;21.50;63.10;;;;;;10361526;28;19933;-45
2023/09/21 18:20:25;;;;;;;;;;;21.50;63.00;;;;;;10356598;28;19933;-45
2023/09/21 18:25:27;;;;;;;;;;;21.50;62.80;;;;;;10354692;28;20330;-44
2023/09/21 18:30:29;;;;;;;;;;;21.50;62.70;;;;;;10357856;28;19934;-43
2023/09/21 18:35:34;;;;;;;;;;;21.60;62.70;;;;;;10350769;28;20351;-43
2023/09/21 18:40:35;;;;;;;;;;;21.60;62.50;;;;;;10345969;28;20317;-44
2023/09/21 18:45:38;;;;;;;;;;;21.60;62.20;;;;;;10361892;28;20318;-46
2023/09/21 18:50:41;;;;;;;;;;;21.50;61.90;;;;;;10342267;28;19933;-44
2023/09/21 18:55:43;;;;;;;;;;;21.50;61.70;;;;;;10341751;28;19941;-45
2023/09/21 19:00:45;;;;;;;;;;;21.50;61.90;;;;;;10345655;28;20527;-46
2023/09/21 19:05:47;;;;;;;;;;;21.50;61.70;;;;;;10350587;28;20050;-46
2023/09/21 19:10:49;;;;;;;;;;;21.50;61.70;;;;;;10354021;28;20390;-46
2023/09/21 19:15:52;;;;;;;;;;;21.60;61.60;;;;;;10352883;28;20424;-48
2023/09/21 19:20:54;;;;;;;;;;;21.60;61.60;;;;;;10373220;28;19992;-47
2023/09/21 19:25:56;;;;;;;;;;;21.60;61.40;;;;;;10340162;28;19941;-44
2023/09/21 19:30:59;;;;;;;;;;;21.60;61.30;;;;;;10356581;28;19934;-46
2023/09/21 19:36:01;;;;;;;;;;;21.60;61.20;;;;;;10353080;28;20389;-44
2023/09/21 19:41:03;;;;;;;;;;;21.60;61.20;;;;;;10346090;28;19940;-45
2023/09/21 19:46:05;;;;;;;;;;;21.60;61.00;;;;;;10345605;28;20348;-45
2023/09/21 19:51:08;;;;;;;;;;;21.60;60.90;;;;;;10364460;28;19934;-45
2023/09/21 19:56:09;;;;;;;;;;;21.60;60.80;;;;;;10349793;28;20356;-44
2023/09/21 20:01:13;;;;;;;;;;;21.60;60.80;;;;;;10366927;28;19934;-43
2023/09/21 20:06:15;;;;;;;;;;;21.60;60.80;;;;;;10350157;28;20550;-45
2023/09/21 20:11:17;;;;;;;;;;;21.60;60.60;;;;;;10349671;28;20407;-44
2023/09/21 20:16:19;;;;;;;;;;;21.60;60.60;;;;;;10364809;28;20415;-44
2023/09/21 20:21:22;;;;;;;;;;;21.60;60.50;;;;;;10357626;28;20032;-47
2023/09/21 20:26:24;;;;;;;;;;;21.60;60.40;;;;;;10350270;28;20024;-47
2023/09/21 20:31:26;;;;;;;;;;;21.60;60.40;;;;;;10336249;28;19934;-43
2023/09/21 20:36:27;;;;;;;;;;;21.60;60.40;;;;;;10342882;28;20302;-45
2023/09/21 20:41:29;;;;;;;;;;;21.50;60.30;;;;;;10353182;28;19985;-44
2023/09/21 20:46:31;;;;;;;;;;;21.60;60.30;;;;;;10358275;28;20460;-45
2023/09/21 20:51:33;;;;;;;;;;;21.50;60.10;;;;;;10350415;28;20411;-51
2023/09/21 20:56:39;;;;;;;;;;;21.50;60.00;;;;;;10364963;28;19941;-43
2023/09/21 21:01:41;;;;;;;;;;;21.50;59.90;;;;;;10351062;28;19934;-43
2023/09/21 21:06:43;;;;;;;;;;;21.50;59.90;;;;;;10349822;28;20028;-44
2023/09/21 21:11:44;;;;;;;;;;;21.40;59.80;;;;;;10351309;28;20088;-50
2023/09/21 21:16:47;;;;;;;;;;;21.40;59.80;;;;;;10349740;28;19940;-48
2023/09/21 21:21:49;;;;;;;;;;;21.40;59.70;;;;;;10347980;28;20313;-46
2023/09/21 21:26:52;;;;;;;;;;;21.40;59.70;;;;;;10356937;28;19934;-45
2023/09/21 21:31:54;;;;;;;;;;;21.40;59.60;;;;;;10353754;28;20404;-48
2023/09/21 21:36:59;;;;;;;;;;;21.40;59.60;;;;;;10359878;28;19934;-46
2023/09/21 21:42:00;;;;;;;;;;;21.30;59.50;;;;;;10355855;28;19941;-45
2023/09/21 21:47:03;;;;;;;;;;;21.40;59.60;;;;;;10353337;28;20412;-46
2023/09/21 21:52:04;;;;;;;;;;;21.30;59.40;;;;;;10334939;28;20304;-46
2023/09/21 21:57:06;;;;;;;;;;;21.30;59.40;;;;;;10351545;28;19944;-47
2023/09/21 22:02:08;;;;;;;;;;;21.30;59.30;;;;;;10352174;28;19941;-45
2023/09/21 22:07:10;;;;;;;;;;;21.30;59.30;;;;;;10354109;28;19934;-44
2023/09/21 22:12:11;;;;;;;;;;;21.30;59.30;;;;;;10349529;28;20513;-46
2023/09/21 22:17:13;;;;;;;;;;;21.30;59.20;;;;;;10347524;28;19934;-45
2023/09/21 22:22:15;;;;;;;;;;;21.30;59.20;;;;;;10347291;28;19989;-43
2023/09/21 22:27:18;;;;;;;;;;;21.30;59.20;;;;;;10349999;28;19933;-46
2023/09/21 22:32:22;;;;;;;;;;;21.30;59.20;;;;;;10342808;28;19941;-47
2023/09/21 22:37:24;;;;;;;;;;;21.30;59.10;;;;;;10361660;28;19934;-44
2023/09/21 22:42:26;;;;;;;;;;;21.30;59.00;;;;;;10344811;28;20520;-44
2023/09/21 22:47:47;;;;;;;;;;;21.30;59.00;;;;;;10348048;28;20428;-46
2023/09/21 22:52:49;;;;;;;;;;;21.30;59.00;;;;;;10353788;28;20297;-48
2023/09/21 22:57:52;;;;;;;;;;;21.30;58.80;;;;;;10354193;28;19940;-47
2023/09/21 23:02:54;;;;;;;;;;;21.30;58.90;;;;;;10347350;28;19940;-43
2023/09/21 23:07:56;;;;;;;;;;;21.30;58.80;;;;;;10365172;28;20051;-46
2023/09/21 23:12:57;;;;;;;;;;;21.30;58.70;;;;;;10354215;28;20012;-48
2023/09/21 23:17:59;;;;;;;;;;;21.30;59.10;;;;;;10362250;28;19941;-73
2023/09/21 23:23:01;;;;;;;;;;;21.30;58.60;;;;;;10352730;28;19940;-47
2023/09/21 23:28:03;;;;;;;;;;;21.30;58.60;;;;;;10367491;28;20000;-42
2023/09/21 23:33:05;;;;;;;;;;;21.30;58.60;;;;;;10360274;28;19934;-43
2023/09/21 23:38:07;;;;;;;;;;;21.30;58.50;;;;;;10352896;28;20419;-47
2023/09/21 23:43:10;;;;;;;;;;;21.30;58.50;;;;;;10351518;28;19933;-46
2023/09/21 23:48:14;;;;;;;;;;;21.30;58.50;;;;;;10366475;28;19940;-45
2023/09/21 23:53:15;;;;;;;;;;;21.30;58.40;;;;;;10350379;28;19934;-45
2023/09/21 23:58:18;;;;;;;;;;;21.30;58.50;;;;;;10365568;28;19934;-44
